sensor_id;sensor_type;location;lat;lon;timestamp;P1;durP1;ratioP1;P2;durP2;ratioP2
3503;SDS011;1766;53.490;10.174;2023-05-13T00:00:11;4.97;;;4.00;;
3503;SDS011;1766;53.490;10.174;2023-05-13T00:02:14;7.07;;;3.73;;
3503;SDS011;1766;53.490;10.174;2023-05-13T00:04:17;5.70;;;3.40;;
3503;SDS011;1766;53.490;10.174;2023-05-13T00:06:19;6.40;;;3.57;;
3503;SDS011;1766;53.490;10.174;2023-05-13T00:08:21;4.40;;;3.80;;
3503;SDS011;1766;53.490;10.174;2023-05-13T00:10:23;5.57;;;3.33;;
3503;SDS011;1766;53.490;10.174;2023-05-13T00:12:30;7.07;;;3.70;;
3503;SDS011;1766;53.490;10.174;2023-05-13T00:14:32;11.37;;;4.03;;
3503;SDS011;1766;53.490;10.174;2023-05-13T00:16:34;6.43;;;3.87;;
3503;SDS011;1766;53.490;10.174;2023-05-13T00:18:36;6.77;;;3.50;;
3503;SDS011;1766;53.490;10.174;2023-05-13T00:20:39;5.40;;;3.57;;
3503;SDS011;1766;53.490;10.174;2023-05-13T00:22:40;8.40;;;3.97;;
3503;SDS011;1766;53.490;10.174;2023-05-13T00:24:42;6.40;;;4.17;;
3503;SDS011;1766;53.490;10.174;2023-05-13T00:26:44;9.33;;;3.40;;
3503;SDS011;1766;53.490;10.174;2023-05-13T00:28:46;6.90;;;3.80;;
3503;SDS011;1766;53.490;10.174;2023-05-13T00:30:48;9.17;;;3.87;;
3503;SDS011;1766;53.490;10.174;2023-05-13T00:32:49;7.13;;;3.60;;
3503;SDS011;1766;53.490;10.174;2023-05-13T00:34:51;5.20;;;4.30;;
3503;SDS011;1766;53.490;10.174;2023-05-13T00:36:54;4.93;;;3.67;;
3503;SDS011;1766;53.490;10.174;2023-05-13T00:38:56;5.07;;;3.57;;
3503;SDS011;1766;53.490;10.174;2023-05-13T00:40:58;4.60;;;3.80;;
3503;SDS011;1766;53.490;10.174;2023-05-13T00:43:00;7.83;;;3.77;;
3503;SDS011;1766;53.490;10.174;2023-05-13T00:45:02;5.83;;;3.87;;
3503;SDS011;1766;53.490;10.174;2023-05-13T00:47:05;4.77;;;3.60;;
3503;SDS011;1766;53.490;10.174;2023-05-13T00:49:07;6.77;;;4.33;;
3503;SDS011;1766;53.490;10.174;2023-05-13T00:51:09;4.93;;;4.00;;
3503;SDS011;1766;53.490;10.174;2023-05-13T00:53:13;7.03;;;4.07;;
3503;SDS011;1766;53.490;10.174;2023-05-13T00:55:16;6.90;;;4.40;;
3503;SDS011;1766;53.490;10.174;2023-05-13T00:57:20;4.37;;;3.90;;
3503;SDS011;1766;53.490;10.174;2023-05-13T00:59:22;5.93;;;3.60;;
3503;SDS011;1766;53.490;10.174;2023-05-13T01:01:29;10.53;;;4.03;;
3503;SDS011;1766;53.490;10.174;2023-05-13T01:03:43;7.37;;;4.07;;
3503;SDS011;1766;53.490;10.174;2023-05-13T01:05:54;5.50;;;4.30;;
3503;SDS011;1766;53.490;10.174;2023-05-13T01:08:06;4.63;;;3.80;;
3503;SDS011;1766;53.490;10.174;2023-05-13T01:10:22;8.90;;;4.33;;
3503;SDS011;1766;53.490;10.174;2023-05-13T01:12:35;5.17;;;3.53;;
3503;SDS011;1766;53.490;10.174;2023-05-13T01:14:41;5.33;;;4.30;;
3503;SDS011;1766;53.490;10.174;2023-05-13T01:16:52;6.00;;;4.00;;
3503;SDS011;1766;53.490;10.174;2023-05-13T01:19:00;4.70;;;4.20;;
3503;SDS011;1766;53.490;10.174;2023-05-13T01:21:07;4.73;;;4.30;;
3503;SDS011;1766;53.490;10.174;2023-05-13T01:23:13;5.00;;;4.17;;
3503;SDS011;1766;53.490;10.174;2023-05-13T01:25:15;4.37;;;3.73;;
3503;SDS011;1766;53.490;10.174;2023-05-13T01:27:16;5.23;;;4.50;;
3503;SDS011;1766;53.490;10.174;2023-05-13T01:29:18;5.53;;;4.73;;
3503;SDS011;1766;53.490;10.174;2023-05-13T01:31:20;5.73;;;5.10;;
3503;SDS011;1766;53.490;10.174;2023-05-13T01:33:24;6.57;;;4.80;;
3503;SDS011;1766;53.490;10.174;2023-05-13T01:35:26;6.57;;;4.73;;
3503;SDS011;1766;53.490;10.174;2023-05-13T01:37:29;8.77;;;4.37;;
3503;SDS011;1766;53.490;10.174;2023-05-13T01:39:47;5.47;;;4.93;;
3503;SDS011;1766;53.490;10.174;2023-05-13T01:41:50;5.67;;;4.90;;
3503;SDS011;1766;53.490;10.174;2023-05-13T01:43:52;10.63;;;5.00;;
3503;SDS011;1766;53.490;10.174;2023-05-13T01:45:53;8.37;;;4.83;;
3503;SDS011;1766;53.490;10.174;2023-05-13T01:47:59;7.97;;;5.40;;
3503;SDS011;1766;53.490;10.174;2023-05-13T01:50:01;10.03;;;5.20;;
3503;SDS011;1766;53.490;10.174;2023-05-13T01:52:03;5.50;;;4.80;;
3503;SDS011;1766;53.490;10.174;2023-05-13T01:54:05;6.87;;;5.10;;
3503;SDS011;1766;53.490;10.174;2023-05-13T01:56:10;7.77;;;5.27;;
3503;SDS011;1766;53.490;10.174;2023-05-13T01:58:12;13.17;;;5.33;;
3503;SDS011;1766;53.490;10.174;2023-05-13T02:02:16;9.77;;;5.13;;
3503;SDS011;1766;53.490;10.174;2023-05-13T02:04:18;7.43;;;5.30;;
3503;SDS011;1766;53.490;10.174;2023-05-13T02:06:20;5.77;;;5.10;;
3503;SDS011;1766;53.490;10.174;2023-05-13T02:08:22;9.13;;;5.40;;
3503;SDS011;1766;53.490;10.174;2023-05-13T02:10:26;8.73;;;5.77;;
3503;SDS011;1766;53.490;10.174;2023-05-13T02:12:29;8.27;;;5.80;;
3503;SDS011;1766;53.490;10.174;2023-05-13T02:14:31;7.47;;;5.67;;
3503;SDS011;1766;53.490;10.174;2023-05-13T02:16:33;9.00;;;5.60;;
3503;SDS011;1766;53.490;10.174;2023-05-13T02:18:35;9.43;;;5.87;;
3503;SDS011;1766;53.490;10.174;2023-05-13T02:20:36;10.80;;;6.53;;
3503;SDS011;1766;53.490;10.174;2023-05-13T02:22:38;9.20;;;6.03;;
3503;SDS011;1766;53.490;10.174;2023-05-13T02:24:40;8.63;;;5.93;;
3503;SDS011;1766;53.490;10.174;2023-05-13T02:26:42;8.87;;;6.20;;
3503;SDS011;1766;53.490;10.174;2023-05-13T02:28:46;11.40;;;6.30;;
3503;SDS011;1766;53.490;10.174;2023-05-13T02:30:48;9.00;;;6.40;;
3503;SDS011;1766;53.490;10.174;2023-05-13T02:32:50;8.90;;;6.40;;
3503;SDS011;1766;53.490;10.174;2023-05-13T02:34:52;8.23;;;6.43;;
3503;SDS011;1766;53.490;10.174;2023-05-13T02:36:54;6.70;;;6.00;;
3503;SDS011;1766;53.490;10.174;2023-05-13T02:38:56;8.30;;;6.63;;
3503;SDS011;1766;53.490;10.174;2023-05-13T02:40:58;13.70;;;7.50;;
3503;SDS011;1766;53.490;10.174;2023-05-13T02:43:00;10.63;;;6.80;;
3503;SDS011;1766;53.490;10.174;2023-05-13T02:45:03;11.77;;;6.87;;
3503;SDS011;1766;53.490;10.174;2023-05-13T02:47:06;9.50;;;6.57;;
3503;SDS011;1766;53.490;10.174;2023-05-13T02:49:07;7.83;;;6.60;;
3503;SDS011;1766;53.490;10.174;2023-05-13T02:51:09;7.73;;;6.93;;
3503;SDS011;1766;53.490;10.174;2023-05-13T02:53:11;12.03;;;7.00;;
3503;SDS011;1766;53.490;10.174;2023-05-13T02:55:13;10.90;;;7.23;;
3503;SDS011;1766;53.490;10.174;2023-05-13T02:57:16;9.70;;;7.43;;
3503;SDS011;1766;53.490;10.174;2023-05-13T02:59:18;11.30;;;7.80;;
3503;SDS011;1766;53.490;10.174;2023-05-13T03:01:21;12.30;;;7.47;;
3503;SDS011;1766;53.490;10.174;2023-05-13T03:03:25;10.90;;;7.40;;
3503;SDS011;1766;53.490;10.174;2023-05-13T03:05:27;7.77;;;7.00;;
3503;SDS011;1766;53.490;10.174;2023-05-13T03:07:29;12.80;;;7.77;;
3503;SDS011;1766;53.490;10.174;2023-05-13T03:09:31;17.07;;;7.93;;
3503;SDS011;1766;53.490;10.174;2023-05-13T03:11:35;10.90;;;7.87;;
3503;SDS011;1766;53.490;10.174;2023-05-13T03:13:36;9.10;;;7.53;;
3503;SDS011;1766;53.490;10.174;2023-05-13T03:15:38;10.17;;;8.30;;
3503;SDS011;1766;53.490;10.174;2023-05-13T03:17:41;10.73;;;8.30;;
3503;SDS011;1766;53.490;10.174;2023-05-13T03:19:43;10.87;;;8.27;;
3503;SDS011;1766;53.490;10.174;2023-05-13T03:21:45;12.30;;;8.30;;
3503;SDS011;1766;53.490;10.174;2023-05-13T03:23:46;9.63;;;8.17;;
3503;SDS011;1766;53.490;10.174;2023-05-13T03:25:48;14.13;;;8.43;;
3503;SDS011;1766;53.490;10.174;2023-05-13T03:27:50;10.67;;;8.43;;
3503;SDS011;1766;53.490;10.174;2023-05-13T03:29:52;10.23;;;8.67;;
3503;SDS011;1766;53.490;10.174;2023-05-13T03:31:53;12.53;;;8.73;;
3503;SDS011;1766;53.490;10.174;2023-05-13T03:33:56;11.67;;;8.93;;
3503;SDS011;1766;53.490;10.174;2023-05-13T03:35:58;10.80;;;8.67;;
3503;SDS011;1766;53.490;10.174;2023-05-13T03:38:00;19.50;;;9.27;;
3503;SDS011;1766;53.490;10.174;2023-05-13T03:40:02;12.70;;;9.90;;
3503;SDS011;1766;53.490;10.174;2023-05-13T03:42:07;17.90;;;9.50;;
3503;SDS011;1766;53.490;10.174;2023-05-13T03:44:09;11.87;;;9.27;;
3503;SDS011;1766;53.490;10.174;2023-05-13T03:46:11;13.33;;;9.57;;
3503;SDS011;1766;53.490;10.174;2023-05-13T03:48:13;13.57;;;9.90;;
3503;SDS011;1766;53.490;10.174;2023-05-13T03:50:16;12.20;;;9.00;;
3503;SDS011;1766;53.490;10.174;2023-05-13T03:52:18;13.73;;;9.90;;
3503;SDS011;1766;53.490;10.174;2023-05-13T03:54:20;14.63;;;10.47;;
3503;SDS011;1766;53.490;10.174;2023-05-13T03:56:22;16.93;;;10.17;;
3503;SDS011;1766;53.490;10.174;2023-05-13T03:58:23;10.97;;;9.20;;
3503;SDS011;1766;53.490;10.174;2023-05-13T04:00:25;12.87;;;9.50;;
3503;SDS011;1766;53.490;10.174;2023-05-13T04:02:27;15.30;;;10.20;;
3503;SDS011;1766;53.490;10.174;2023-05-13T04:04:29;11.97;;;9.70;;
3503;SDS011;1766;53.490;10.174;2023-05-13T04:06:38;14.57;;;10.63;;
